sensor_id;sensor_type;location;lat;lon;timestamp;P1;durP1;ratioP1;P2;durP2;ratioP2
48550;SDS011;34397;51.176;6.738;2023-03-26T00:02:15;13.93;;;2.60;;
48550;SDS011;34397;51.176;6.738;2023-03-26T00:04:48;18.52;;;2.75;;
48550;SDS011;34397;51.176;6.738;2023-03-26T00:07:22;16.17;;;3.00;;
48550;SDS011;34397;51.176;6.738;2023-03-26T00:09:53;19.48;;;3.85;;
48550;SDS011;34397;51.176;6.738;2023-03-26T00:12:27;16.92;;;3.35;;
48550;SDS011;34397;51.176;6.738;2023-03-26T00:14:58;19.40;;;2.30;;
48550;SDS011;34397;51.176;6.738;2023-03-26T00:17:30;17.10;;;2.80;;
48550;SDS011;34397;51.176;6.738;2023-03-26T00:20:05;20.70;;;2.95;;
48550;SDS011;34397;51.176;6.738;2023-03-26T00:22:38;18.00;;;2.60;;
48550;SDS011;34397;51.176;6.738;2023-03-26T00:25:10;16.33;;;3.28;;
48550;SDS011;34397;51.176;6.738;2023-03-26T00:27:42;19.17;;;3.10;;
48550;SDS011;34397;51.176;6.738;2023-03-26T00:32:47;15.55;;;2.50;;
48550;SDS011;34397;51.176;6.738;2023-03-26T00:35:20;26.23;;;3.53;;
48550;SDS011;34397;51.176;6.738;2023-03-26T00:37:52;16.85;;;2.50;;
48550;SDS011;34397;51.176;6.738;2023-03-26T00:40:24;22.63;;;3.63;;
48550;SDS011;34397;51.176;6.738;2023-03-26T00:42:56;15.85;;;2.83;;
48550;SDS011;34397;51.176;6.738;2023-03-26T00:45:28;18.65;;;3.13;;
48550;SDS011;34397;51.176;6.738;2023-03-26T00:48:00;15.07;;;2.80;;
48550;SDS011;34397;51.176;6.738;2023-03-26T00:50:33;19.45;;;3.05;;
48550;SDS011;34397;51.176;6.738;2023-03-26T00:53:05;21.30;;;3.42;;
48550;SDS011;34397;51.176;6.738;2023-03-26T00:58:10;19.83;;;2.95;;
48550;SDS011;34397;51.176;6.738;2023-03-26T01:00:45;19.85;;;3.40;;
48550;SDS011;34397;51.176;6.738;2023-03-26T01:03:20;14.93;;;2.92;;
48550;SDS011;34397;51.176;6.738;2023-03-26T01:05:57;24.10;;;3.50;;
48550;SDS011;34397;51.176;6.738;2023-03-26T01:08:34;17.50;;;3.45;;
48550;SDS011;34397;51.176;6.738;2023-03-26T01:11:10;15.38;;;3.03;;
48550;SDS011;34397;51.176;6.738;2023-03-26T01:13:45;14.70;;;3.03;;
48550;SDS011;34397;51.176;6.738;2023-03-26T01:16:23;17.23;;;2.83;;
48550;SDS011;34397;51.176;6.738;2023-03-26T01:18:58;16.63;;;2.45;;
48550;SDS011;34397;51.176;6.738;2023-03-26T01:21:32;20.42;;;3.85;;
48550;SDS011;34397;51.176;6.738;2023-03-26T01:24:06;18.77;;;2.97;;
48550;SDS011;34397;51.176;6.738;2023-03-26T01:29:55;20.50;;;3.13;;
48550;SDS011;34397;51.176;6.738;2023-03-26T01:32:38;13.95;;;2.97;;
48550;SDS011;34397;51.176;6.738;2023-03-26T01:35:23;15.27;;;2.88;;
48550;SDS011;34397;51.176;6.738;2023-03-26T01:38:07;19.30;;;2.88;;
48550;SDS011;34397;51.176;6.738;2023-03-26T01:40:54;13.15;;;2.15;;
48550;SDS011;34397;51.176;6.738;2023-03-26T01:43:31;17.90;;;3.05;;
48550;SDS011;34397;51.176;6.738;2023-03-26T01:46:10;16.13;;;2.80;;
48550;SDS011;34397;51.176;6.738;2023-03-26T01:48:43;16.95;;;2.70;;
48550;SDS011;34397;51.176;6.738;2023-03-26T01:51:24;20.63;;;3.28;;
48550;SDS011;34397;51.176;6.738;2023-03-26T01:53:59;16.58;;;2.80;;
48550;SDS011;34397;51.176;6.738;2023-03-26T01:56:36;17.77;;;2.75;;
48550;SDS011;34397;51.176;6.738;2023-03-26T01:59:22;17.10;;;3.35;;
48550;SDS011;34397;51.176;6.738;2023-03-26T02:02:13;19.02;;;3.15;;
48550;SDS011;34397;51.176;6.738;2023-03-26T02:04:53;18.27;;;3.55;;
48550;SDS011;34397;51.176;6.738;2023-03-26T02:07:32;21.27;;;2.88;;
48550;SDS011;34397;51.176;6.738;2023-03-26T02:10:11;17.30;;;2.65;;
48550;SDS011;34397;51.176;6.738;2023-03-26T02:12:47;19.48;;;2.85;;
48550;SDS011;34397;51.176;6.738;2023-03-26T02:15:20;19.30;;;3.35;;
48550;SDS011;34397;51.176;6.738;2023-03-26T02:17:53;23.42;;;3.10;;
48550;SDS011;34397;51.176;6.738;2023-03-26T02:20:25;16.80;;;2.63;;
48550;SDS011;34397;51.176;6.738;2023-03-26T02:22:59;19.13;;;2.80;;
48550;SDS011;34397;51.176;6.738;2023-03-26T02:25:30;12.73;;;2.35;;
48550;SDS011;34397;51.176;6.738;2023-03-26T02:28:05;15.60;;;2.30;;
48550;SDS011;34397;51.176;6.738;2023-03-26T02:30:37;17.67;;;2.33;;
48550;SDS011;34397;51.176;6.738;2023-03-26T02:33:09;13.38;;;2.15;;
48550;SDS011;34397;51.176;6.738;2023-03-26T02:35:44;17.60;;;2.75;;
48550;SDS011;34397;51.176;6.738;2023-03-26T02:38:16;15.95;;;3.28;;
48550;SDS011;34397;51.176;6.738;2023-03-26T02:40:48;16.23;;;2.58;;
48550;SDS011;34397;51.176;6.738;2023-03-26T02:43:21;16.67;;;2.45;;
48550;SDS011;34397;51.176;6.738;2023-03-26T02:45:53;21.30;;;2.78;;
48550;SDS011;34397;51.176;6.738;2023-03-26T02:48:25;19.00;;;2.60;;
48550;SDS011;34397;51.176;6.738;2023-03-26T02:50:57;18.63;;;3.65;;
48550;SDS011;34397;51.176;6.738;2023-03-26T02:53:28;14.30;;;2.35;;
48550;SDS011;34397;51.176;6.738;2023-03-26T02:56:00;17.40;;;3.58;;
48550;SDS011;34397;51.176;6.738;2023-03-26T02:58:34;17.83;;;3.58;;
48550;SDS011;34397;51.176;6.738;2023-03-26T03:01:06;15.70;;;2.65;;
48550;SDS011;34397;51.176;6.738;2023-03-26T03:03:37;10.18;;;2.13;;
48550;SDS011;34397;51.176;6.738;2023-03-26T03:06:09;16.50;;;2.60;;
48550;SDS011;34397;51.176;6.738;2023-03-26T03:08:41;18.17;;;2.38;;
48550;SDS011;34397;51.176;6.738;2023-03-26T03:11:15;12.70;;;2.83;;
48550;SDS011;34397;51.176;6.738;2023-03-26T03:13:52;19.13;;;2.47;;
48550;SDS011;34397;51.176;6.738;2023-03-26T03:16:24;9.70;;;2.03;;
48550;SDS011;34397;51.176;6.738;2023-03-26T03:18:56;12.80;;;2.50;;
48550;SDS011;34397;51.176;6.738;2023-03-26T03:21:28;11.45;;;2.22;;
48550;SDS011;34397;51.176;6.738;2023-03-26T03:24:00;17.52;;;2.90;;
48550;SDS011;34397;51.176;6.738;2023-03-26T03:26:32;13.23;;;2.35;;
48550;SDS011;34397;51.176;6.738;2023-03-26T03:29:07;13.18;;;2.25;;
48550;SDS011;34397;51.176;6.738;2023-03-26T03:31:39;15.88;;;2.35;;
48550;SDS011;34397;51.176;6.738;2023-03-26T03:34:11;11.93;;;2.60;;
48550;SDS011;34397;51.176;6.738;2023-03-26T03:36:43;11.32;;;2.05;;
48550;SDS011;34397;51.176;6.738;2023-03-26T03:39:17;11.95;;;2.22;;
48550;SDS011;34397;51.176;6.738;2023-03-26T03:41:49;14.93;;;2.05;;
48550;SDS011;34397;51.176;6.738;2023-03-26T03:44:22;14.23;;;2.28;;
48550;SDS011;34397;51.176;6.738;2023-03-26T03:46:54;9.95;;;1.90;;
48550;SDS011;34397;51.176;6.738;2023-03-26T03:49:26;13.77;;;1.90;;
48550;SDS011;34397;51.176;6.738;2023-03-26T03:51:58;13.75;;;2.50;;
48550;SDS011;34397;51.176;6.738;2023-03-26T03:57:02;10.65;;;2.17;;
48550;SDS011;34397;51.176;6.738;2023-03-26T03:59:35;9.15;;;1.90;;
48550;SDS011;34397;51.176;6.738;2023-03-26T04:02:07;11.77;;;2.33;;
48550;SDS011;34397;51.176;6.738;2023-03-26T04:07:11;7.15;;;1.77;;
48550;SDS011;34397;51.176;6.738;2023-03-26T04:09:44;9.00;;;1.60;;
48550;SDS011;34397;51.176;6.738;2023-03-26T04:12:16;11.00;;;1.75;;
48550;SDS011;34397;51.176;6.738;2023-03-26T04:14:49;9.48;;;2.10;;
48550;SDS011;34397;51.176;6.738;2023-03-26T04:17:21;13.50;;;2.50;;
48550;SDS011;34397;51.176;6.738;2023-03-26T04:22:25;8.48;;;1.65;;
48550;SDS011;34397;51.176;6.738;2023-03-26T04:25:03;9.88;;;1.67;;
48550;SDS011;34397;51.176;6.738;2023-03-26T04:27:36;11.35;;;1.65;;
48550;SDS011;34397;51.176;6.738;2023-03-26T04:30:12;12.77;;;2.50;;
48550;SDS011;34397;51.176;6.738;2023-03-26T04:32:47;10.35;;;1.90;;
48550;SDS011;34397;51.176;6.738;2023-03-26T04:35:19;10.80;;;1.75;;
48550;SDS011;34397;51.176;6.738;2023-03-26T04:37:51;9.65;;;1.77;;
48550;SDS011;34397;51.176;6.738;2023-03-26T04:40:23;10.40;;;2.33;;
48550;SDS011;34397;51.176;6.738;2023-03-26T04:42:55;6.28;;;1.60;;
48550;SDS011;34397;51.176;6.738;2023-03-26T04:45:28;5.47;;;1.38;;
48550;SDS011;34397;51.176;6.738;2023-03-26T04:48:00;10.75;;;2.38;;
48550;SDS011;34397;51.176;6.738;2023-03-26T04:50:32;14.68;;;1.92;;
48550;SDS011;34397;51.176;6.738;2023-03-26T04:53:04;13.98;;;2.35;;
48550;SDS011;34397;51.176;6.738;2023-03-26T04:55:37;15.30;;;2.80;;
48550;SDS011;34397;51.176;6.738;2023-03-26T04:58:14;9.63;;;1.65;;
48550;SDS011;34397;51.176;6.738;2023-03-26T05:00:47;7.38;;;1.63;;
48550;SDS011;34397;51.176;6.738;2023-03-26T05:03:19;11.18;;;1.70;;
48550;SDS011;34397;51.176;6.738;2023-03-26T05:05:51;7.90;;;1.48;;
48550;SDS011;34397;51.176;6.738;2023-03-26T05:08:23;9.82;;;1.98;;
48550;SDS011;34397;51.176;6.738;2023-03-26T05:10:57;11.00;;;2.13;;
48550;SDS011;34397;51.176;6.738;2023-03-26T05:13:29;8.13;;;1.92;;
48550;SDS011;34397;51.176;6.738;2023-03-26T05:16:03;13.48;;;2.00;;
48550;SDS011;34397;51.176;6.738;2023-03-26T05:18:35;8.70;;;1.58;;
48550;SDS011;34397;51.176;6.738;2023-03-26T05:21:07;11.43;;;1.85;;
48550;SDS011;34397;51.176;6.738;2023-03-26T05:26:11;9.52;;;1.80;;
48550;SDS011;34397;51.176;6.738;2023-03-26T05:28:43;7.82;;;1.52;;
48550;SDS011;34397;51.176;6.738;2023-03-26T05:31:18;7.95;;;2.17;;
48550;SDS011;34397;51.176;6.738;2023-03-26T05:33:51;14.45;;;2.35;;
48550;SDS011;34397;51.176;6.738;2023-03-26T05:36:23;7.82;;;1.70;;
48550;SDS011;34397;51.176;6.738;2023-03-26T05:38:57;10.88;;;1.98;;
48550;SDS011;34397;51.176;6.738;2023-03-26T05:41:29;11.32;;;1.80;;
48550;SDS011;34397;51.176;6.738;2023-03-26T05:44:01;8.40;;;1.88;;
48550;SDS011;34397;51.176;6.738;2023-03-26T05:46:34;9.57;;;1.60;;
48550;SDS011;34397;51.176;6.738;2023-03-26T05:49:05;10.73;;;1.70;;
48550;SDS011;34397;51.176;6.738;2023-03-26T05:51:37;6.93;;;1.67;;
48550;SDS011;34397;51.176;6.738;2023-03-26T05:54:09;8.52;;;2.28;;
48550;SDS011;34397;51.176;6.738;2023-03-26T05:56:41;6.93;;;1.50;;
48550;SDS011;34397;51.176;6.738;2023-03-26T05:59:13;12.63;;;1.70;;
48550;SDS011;34397;51.176;6.738;2023-03-26T06:01:46;8.23;;;1.80;;
48550;SDS011;34397;51.176;6.738;2023-03-26T06:04:19;6.60;;;1.40;;
48550;SDS011;34397;51.176;6.738;2023-03-26T06:06:51;8.95;;;2.38;;
48550;SDS011;34397;51.176;6.738;2023-03-26T06:09:23;6.93;;;1.85;;
48550;SDS011;34397;51.176;6.738;2023-03-26T06:11:55;11.05;;;2.05;;
48550;SDS011;34397;51.176;6.738;2023-03-26T06:14:27;8.43;;;1.92;;
48550;SDS011;34397;51.176;6.738;2023-03-26T06:17:00;8.32;;;1.83;;
48550;SDS011;34397;51.176;6.738;2023-03-26T06:19:32;12.40;;;2.20;;
48550;SDS011;34397;51.176;6.738;2023-03-26T06:22:04;6.30;;;1.90;;
48550;SDS011;34397;51.176;6.738;2023-03-26T06:24:36;8.75;;;1.90;;
48550;SDS011;34397;51.176;6.738;2023-03-26T06:27:07;11.63;;;2.60;;
48550;SDS011;34397;51.176;6.738;2023-03-26T06:29:39;9.63;;;1.67;;
48550;SDS011;34397;51.176;6.738;2023-03-26T06:32:13;11.00;;;2.45;;
48550;SDS011;34397;51.176;6.738;2023-03-26T06:34:45;8.40;;;1.90;;
48550;SDS011;34397;51.176;6.738;2023-03-26T06:37:17;10.82;;;2.70;;
48550;SDS011;34397;51.176;6.738;2023-03-26T06:39:50;10.02;;;2.95;;
48550;SDS011;34397;51.176;6.738;2023-03-26T06:42:22;10.77;;;3.03;;
48550;SDS011;34397;51.176;6.738;2023-03-26T06:44:54;9.88;;;2.72;;
48550;SDS011;34397;51.176;6.738;2023-03-26T06:47:27;11.57;;;2.25;;
48550;SDS011;34397;51.176;6.738;2023-03-26T06:49:59;7.97;;;1.90;;
48550;SDS011;34397;51.176;6.738;2023-03-26T06:52:31;11.40;;;2.63;;
48550;SDS011;34397;51.176;6.738;2023-03-26T06:55:03;11.07;;;2.03;;
48550;SDS011;34397;51.176;6.738;2023-03-26T06:57:37;9.75;;;2.28;;
48550;SDS011;34397;51.176;6.738;2023-03-26T07:00:10;5.85;;;1.85;;
48550;SDS011;34397;51.176;6.738;2023-03-26T07:02:44;13.20;;;2.00;;
48550;SDS011;34397;51.176;6.738;2023-03-26T07:05:17;6.63;;;1.63;;
48550;SDS011;34397;51.176;6.738;2023-03-26T07:07:49;11.63;;;2.50;;
48550;SDS011;34397;51.176;6.738;2023-03-26T07:10:21;10.27;;;1.83;;
48550;SDS011;34397;51.176;6.738;2023-03-26T07:12:53;9.30;;;2.10;;
48550;SDS011;34397;51.176;6.738;2023-03-26T07:15:25;11.05;;;1.77;;
48550;SDS011;34397;51.176;6.738;2023-03-26T07:17:59;10.88;;;1.88;;
48550;SDS011;34397;51.176;6.738;2023-03-26T07:20:31;10.57;;;1.80;;
48550;SDS011;34397;51.176;6.738;2023-03-26T07:23:03;6.53;;;1.70;;
48550;SDS011;34397;51.176;6.738;2023-03-26T07:25:36;6.95;;;2.03;;
48550;SDS011;34397;51.176;6.738;2023-03-26T07:28:09;9.18;;;2.03;;
48550;SDS011;34397;51.176;6.738;2023-03-26T07:30:53;10.90;;;2.17;;
48550;SDS011;34397;51.176;6.738;2023-03-26T07:33:35;7.10;;;2.25;;
48550;SDS011;34397;51.176;6.738;2023-03-26T07:36:17;7.00;;;1.90;;
48550;SDS011;34397;51.176;6.738;2023-03-26T07:38:58;8.43;;;1.80;;
48550;SDS011;34397;51.176;6.738;2023-03-26T07:41:45;9.85;;;1.75;;
48550;SDS011;34397;51.176;6.738;2023-03-26T07:44:24;5.15;;;1.90;;
48550;SDS011;34397;51.176;6.738;2023-03-26T07:47:16;7.20;;;2.10;;
48550;SDS011;34397;51.176;6.738;2023-03-26T07:49:56;11.43;;;2.25;;
48550;SDS011;34397;51.176;6.738;2023-03-26T07:52:29;12.48;;;2.83;;
48550;SDS011;34397;51.176;6.738;2023-03-26T07:55:01;10.60;;;2.80;;
48550;SDS011;34397;51.176;6.738;2023-03-26T07:57:36;9.23;;;2.35;;
48550;SDS011;34397;51.176;6.738;2023-03-26T08:00:22;10.05;;;2.50;;
48550;SDS011;34397;51.176;6.738;2023-03-26T08:03:19;12.30;;;3.63;;
48550;SDS011;34397;51.176;6.738;2023-03-26T08:06:17;11.50;;;2.88;;
48550;SDS011;34397;51.176;6.738;2023-03-26T08:08:58;10.55;;;2.92;;
48550;SDS011;34397;51.176;6.738;2023-03-26T08:11:46;10.57;;;2.78;;
48550;SDS011;34397;51.176;6.738;2023-03-26T08:14:27;10.48;;;3.22;;
48550;SDS011;34397;51.176;6.738;2023-03-26T08:17:12;9.90;;;3.05;;
48550;SDS011;34397;51.176;6.738;2023-03-26T08:19:51;12.75;;;3.30;;
48550;SDS011;34397;51.176;6.738;2023-03-26T08:22:41;11.63;;;3.65;;
48550;SDS011;34397;51.176;6.738;2023-03-26T08:25:23;9.45;;;3.45;;
48550;SDS011;34397;51.176;6.738;2023-03-26T08:28:02;9.57;;;3.25;;
48550;SDS011;34397;51.176;6.738;2023-03-26T08:30:44;9.95;;;2.92;;
48550;SDS011;34397;51.176;6.738;2023-03-26T08:33:16;11.73;;;3.20;;
48550;SDS011;34397;51.176;6.738;2023-03-26T08:35:50;11.55;;;3.17;;
48550;SDS011;34397;51.176;6.738;2023-03-26T08:38:23;9.80;;;3.13;;
48550;SDS011;34397;51.176;6.738;2023-03-26T08:44:35;8.18;;;3.10;;
48550;SDS011;34397;51.176;6.738;2023-03-26T08:48:17;10.52;;;3.13;;
48550;SDS011;34397;51.176;6.738;2023-03-26T08:54:47;11.90;;;3.10;;
48550;SDS011;34397;51.176;6.738;2023-03-26T08:57:59;13.18;;;3.40;;
48550;SDS011;34397;51.176;6.738;2023-03-26T09:01:20;9.60;;;3.70;;
48550;SDS011;34397;51.176;6.738;2023-03-26T09:04:45;12.52;;;3.47;;
48550;SDS011;34397;51.176;6.738;2023-03-26T09:11:29;14.73;;;2.80;;
48550;SDS011;34397;51.176;6.738;2023-03-26T09:14:40;7.53;;;2.03;;
48550;SDS011;34397;51.176;6.738;2023-03-26T09:17:51;7.95;;;2.35;;
48550;SDS011;34397;51.176;6.738;2023-03-26T09:27:39;5.28;;;1.27;;
48550;SDS011;34397;51.176;6.738;2023-03-26T09:30:43;4.88;;;1.30;;
48550;SDS011;34397;51.176;6.738;2023-03-26T09:33:48;5.05;;;1.00;;
48550;SDS011;34397;51.176;6.738;2023-03-26T09:39:30;2.40;;;0.60;;
48550;SDS011;34397;51.176;6.738;2023-03-26T09:42:13;1.90;;;0.60;;
48550;SDS011;34397;51.176;6.738;2023-03-26T09:45:01;1.80;;;0.70;;
48550;SDS011;34397;51.176;6.738;2023-03-26T09:47:58;1.23;;;0.47;;
48550;SDS011;34397;51.176;6.738;2023-03-26T09:54:13;3.55;;;0.75;;
48550;SDS011;34397;51.176;6.738;2023-03-26T09:57:14;3.38;;;0.85;;
48550;SDS011;34397;51.176;6.738;2023-03-26T10:00:20;4.20;;;1.70;;
48550;SDS011;34397;51.176;6.738;2023-03-26T10:03:06;4.47;;;1.13;;
48550;SDS011;34397;51.176;6.738;2023-03-26T10:09:24;5.43;;;1.30;;
48550;SDS011;34397;51.176;6.738;2023-03-26T10:12:13;4.82;;;1.23;;
48550;SDS011;34397;51.176;6.738;2023-03-26T10:15:12;2.42;;;1.08;;
48550;SDS011;34397;51.176;6.738;2023-03-26T10:18:04;5.05;;;1.60;;
48550;SDS011;34397;51.176;6.738;2023-03-26T10:20:52;3.10;;;1.17;;
48550;SDS011;34397;51.176;6.738;2023-03-26T10:23:35;3.00;;;0.90;;
48550;SDS011;34397;51.176;6.738;2023-03-26T10:26:38;1.98;;;0.68;;
48550;SDS011;34397;51.176;6.738;2023-03-26T10:29:25;4.35;;;1.15;;
48550;SDS011;34397;51.176;6.738;2023-03-26T10:32:52;3.40;;;0.82;;
48550;SDS011;34397;51.176;6.738;2023-03-26T10:35:39;6.03;;;0.77;;
48550;SDS011;34397;51.176;6.738;2023-03-26T10:38:21;2.42;;;0.70;;
48550;SDS011;34397;51.176;6.738;2023-03-26T10:41:04;3.63;;;0.90;;
48550;SDS011;34397;51.176;6.738;2023-03-26T10:43:47;2.47;;;0.77;;
48550;SDS011;34397;51.176;6.738;2023-03-26T10:46:55;2.35;;;0.88;;
48550;SDS011;34397;51.176;6.738;2023-03-26T10:52:55;1.85;;;0.60;;
48550;SDS011;34397;51.176;6.738;2023-03-26T10:55:31;2.85;;;0.65;;
48550;SDS011;34397;51.176;6.738;2023-03-26T10:58:10;1.88;;;0.80;;
48550;SDS011;34397;51.176;6.738;2023-03-26T11:00:49;2.30;;;0.68;;
48550;SDS011;34397;51.176;6.738;2023-03-26T11:03:32;1.55;;;0.70;;
48550;SDS011;34397;51.176;6.738;2023-03-26T11:09:12;2.10;;;0.90;;
48550;SDS011;34397;51.176;6.738;2023-03-26T11:11:56;2.08;;;0.80;;
48550;SDS011;34397;51.176;6.738;2023-03-26T11:14:39;3.13;;;0.90;;
48550;SDS011;34397;51.176;6.738;2023-03-26T11:17:19;2.35;;;0.73;;
48550;SDS011;34397;51.176;6.738;2023-03-26T11:20:05;2.83;;;0.90;;
48550;SDS011;34397;51.176;6.738;2023-03-26T11:22:49;3.28;;;0.80;;
48550;SDS011;34397;51.176;6.738;2023-03-26T11:25:35;3.22;;;1.00;;
48550;SDS011;34397;51.176;6.738;2023-03-26T11:28:24;2.67;;;0.90;;
48550;SDS011;34397;51.176;6.738;2023-03-26T11:31:11;2.03;;;0.70;;
48550;SDS011;34397;51.176;6.738;2023-03-26T11:33:50;3.75;;;1.00;;
48550;SDS011;34397;51.176;6.738;2023-03-26T11:36:28;5.50;;;0.90;;
48550;SDS011;34397;51.176;6.738;2023-03-26T11:39:09;3.00;;;1.00;;
48550;SDS011;34397;51.176;6.738;2023-03-26T11:41:45;1.67;;;0.60;;
48550;SDS011;34397;51.176;6.738;2023-03-26T11:44:20;1.80;;;0.60;;
48550;SDS011;34397;51.176;6.738;2023-03-26T11:46:57;1.45;;;0.47;;
48550;SDS011;34397;51.176;6.738;2023-03-26T11:49:34;0.98;;;0.52;;
48550;SDS011;34397;51.176;6.738;2023-03-26T11:52:08;1.77;;;0.70;;
48550;SDS011;34397;51.176;6.738;2023-03-26T11:54:42;0.93;;;0.60;;
48550;SDS011;34397;51.176;6.738;2023-03-26T11:57:17;2.55;;;0.60;;
48550;SDS011;34397;51.176;6.738;2023-03-26T11:59:53;2.20;;;0.77;;
48550;SDS011;34397;51.176;6.738;2023-03-26T12:02:36;1.92;;;0.60;;
48550;SDS011;34397;51.176;6.738;2023-03-26T12:05:14;1.85;;;0.70;;
48550;SDS011;34397;51.176;6.738;2023-03-26T12:07:51;2.58;;;0.60;;
48550;SDS011;34397;51.176;6.738;2023-03-26T12:10:27;2.42;;;0.60;;
48550;SDS011;34397;51.176;6.738;2023-03-26T12:13:05;2.15;;;0.57;;
48550;SDS011;34397;51.176;6.738;2023-03-26T12:16:00;1.00;;;0.50;;
48550;SDS011;34397;51.176;6.738;2023-03-26T12:18:40;1.95;;;0.52;;
48550;SDS011;34397;51.176;6.738;2023-03-26T12:21:15;1.27;;;0.50;;
48550;SDS011;34397;51.176;6.738;2023-03-26T12:23:56;1.20;;;0.55;;
48550;SDS011;34397;51.176;6.738;2023-03-26T12:26:33;1.38;;;0.73;;
48550;SDS011;34397;51.176;6.738;2023-03-26T12:29:10;1.10;;;0.60;;
48550;SDS011;34397;51.176;6.738;2023-03-26T12:31:45;1.67;;;0.50;;
48550;SDS011;34397;51.176;6.738;2023-03-26T12:34:27;1.20;;;0.55;;
48550;SDS011;34397;51.176;6.738;2023-03-26T12:37:04;1.95;;;0.70;;
48550;SDS011;34397;51.176;6.738;2023-03-26T12:39:39;1.52;;;0.55;;
48550;SDS011;34397;51.176;6.738;2023-03-26T12:45:02;1.35;;;0.57;;
48550;SDS011;34397;51.176;6.738;2023-03-26T12:47:36;2.05;;;0.73;;
48550;SDS011;34397;51.176;6.738;2023-03-26T12:50:11;1.52;;;0.73;;
48550;SDS011;34397;51.176;6.738;2023-03-26T12:52:51;1.65;;;0.75;;
48550;SDS011;34397;51.176;6.738;2023-03-26T12:55:45;1.88;;;0.65;;
48550;SDS011;34397;51.176;6.738;2023-03-26T12:58:30;2.42;;;0.93;;
48550;SDS011;34397;51.176;6.738;2023-03-26T13:01:25;1.42;;;0.50;;
48550;SDS011;34397;51.176;6.738;2023-03-26T13:04:16;1.13;;;0.50;;
48550;SDS011;34397;51.176;6.738;2023-03-26T13:07:08;1.27;;;0.68;;
48550;SDS011;34397;51.176;6.738;2023-03-26T13:10:11;1.23;;;0.50;;
48550;SDS011;34397;51.176;6.738;2023-03-26T13:13:02;1.05;;;0.57;;
48550;SDS011;34397;51.176;6.738;2023-03-26T13:15:57;1.05;;;0.50;;
48550;SDS011;34397;51.176;6.738;2023-03-26T13:18:34;1.00;;;0.50;;
48550;SDS011;34397;51.176;6.738;2023-03-26T13:21:15;0.68;;;0.40;;
48550;SDS011;34397;51.176;6.738;2023-03-26T13:23:59;1.00;;;0.40;;
48550;SDS011;34397;51.176;6.738;2023-03-26T13:26:48;1.75;;;0.70;;
48550;SDS011;34397;51.176;6.738;2023-03-26T13:29:35;1.92;;;1.02;;
48550;SDS011;34397;51.176;6.738;2023-03-26T13:32:16;1.48;;;0.75;;
48550;SDS011;34397;51.176;6.738;2023-03-26T13:34:58;1.35;;;0.40;;
48550;SDS011;34397;51.176;6.738;2023-03-26T13:37:41;1.00;;;0.68;;
48550;SDS011;34397;51.176;6.738;2023-03-26T13:40:20;1.02;;;0.65;;
48550;SDS011;34397;51.176;6.738;2023-03-26T13:43:00;0.75;;;0.52;;
48550;SDS011;34397;51.176;6.738;2023-03-26T13:46:03;1.60;;;0.50;;
48550;SDS011;34397;51.176;6.738;2023-03-26T13:48:46;0.55;;;0.47;;
48550;SDS011;34397;51.176;6.738;2023-03-26T13:51:26;1.00;;;0.53;;
48550;SDS011;34397;51.176;6.738;2023-03-26T13:54:08;1.30;;;0.35;;
48550;SDS011;34397;51.176;6.738;2023-03-26T13:56:49;0.93;;;0.30;;
48550;SDS011;34397;51.176;6.738;2023-03-26T13:59:28;0.93;;;0.40;;
48550;SDS011;34397;51.176;6.738;2023-03-26T14:02:04;1.92;;;0.30;;
48550;SDS011;34397;51.176;6.738;2023-03-26T14:04:42;0.65;;;0.30;;
48550;SDS011;34397;51.176;6.738;2023-03-26T14:07:18;0.60;;;0.40;;
48550;SDS011;34397;51.176;6.738;2023-03-26T14:09:55;0.90;;;0.32;;
48550;SDS011;34397;51.176;6.738;2023-03-26T14:12:36;0.43;;;0.28;;
48550;SDS011;34397;51.176;6.738;2023-03-26T14:15:19;0.43;;;0.30;;
48550;SDS011;34397;51.176;6.738;2023-03-26T14:17:58;0.80;;;0.57;;
48550;SDS011;34397;51.176;6.738;2023-03-26T14:24:16;0.63;;;0.28;;
48550;SDS011;34397;51.176;6.738;2023-03-26T14:27:08;0.40;;;0.20;;
48550;SDS011;34397;51.176;6.738;2023-03-26T14:30:13;1.08;;;0.30;;
48550;SDS011;34397;51.176;6.738;2023-03-26T14:33:04;1.65;;;0.30;;
48550;SDS011;34397;51.176;6.738;2023-03-26T14:35:57;1.30;;;0.35;;
48550;SDS011;34397;51.176;6.738;2023-03-26T14:41:49;0.93;;;0.38;;
48550;SDS011;34397;51.176;6.738;2023-03-26T14:44:34;2.10;;;0.30;;
48550;SDS011;34397;51.176;6.738;2023-03-26T14:47:26;0.88;;;0.40;;
48550;SDS011;34397;51.176;6.738;2023-03-26T14:53:10;0.47;;;0.22;;
48550;SDS011;34397;51.176;6.738;2023-03-26T14:59:17;0.20;;;0.20;;
48550;SDS011;34397;51.176;6.738;2023-03-26T15:08:57;0.73;;;0.25;;
48550;SDS011;34397;51.176;6.738;2023-03-26T15:12:03;0.63;;;0.20;;
48550;SDS011;34397;51.176;6.738;2023-03-26T15:18:09;1.38;;;0.50;;
48550;SDS011;34397;51.176;6.738;2023-03-26T15:21:21;0.50;;;0.50;;
48550;SDS011;34397;51.176;6.738;2023-03-26T15:27:36;0.60;;;0.55;;
48550;SDS011;34397;51.176;6.738;2023-03-26T15:34:10;1.23;;;0.75;;
48550;SDS011;34397;51.176;6.738;2023-03-26T15:37:19;1.63;;;0.60;;
48550;SDS011;34397;51.176;6.738;2023-03-26T15:40:42;2.10;;;0.80;;
48550;SDS011;34397;51.176;6.738;2023-03-26T15:43:20;3.03;;;0.80;;
48550;SDS011;34397;51.176;6.738;2023-03-26T15:45:54;1.15;;;0.80;;
48550;SDS011;34397;51.176;6.738;2023-03-26T15:48:59;1.20;;;0.88;;
48550;SDS011;34397;51.176;6.738;2023-03-26T15:51:43;1.58;;;0.95;;
48550;SDS011;34397;51.176;6.738;2023-03-26T15:54:22;2.15;;;0.90;;
48550;SDS011;34397;51.176;6.738;2023-03-26T15:57:04;1.35;;;0.75;;
48550;SDS011;34397;51.176;6.738;2023-03-26T15:59:50;1.77;;;1.00;;
48550;SDS011;34397;51.176;6.738;2023-03-26T16:02:48;1.70;;;1.13;;
48550;SDS011;34397;51.176;6.738;2023-03-26T16:05:40;1.27;;;0.90;;
48550;SDS011;34397;51.176;6.738;2023-03-26T16:08:52;2.38;;;1.02;;
48550;SDS011;34397;51.176;6.738;2023-03-26T16:11:44;2.72;;;1.45;;
48550;SDS011;34397;51.176;6.738;2023-03-26T16:14:34;2.85;;;1.20;;
48550;SDS011;34397;51.176;6.738;2023-03-26T16:17:15;1.58;;;0.95;;
48550;SDS011;34397;51.176;6.738;2023-03-26T16:19:52;1.95;;;1.35;;
48550;SDS011;34397;51.176;6.738;2023-03-26T16:22:40;1.95;;;1.20;;
48550;SDS011;34397;51.176;6.738;2023-03-26T16:25:25;1.23;;;0.93;;
48550;SDS011;34397;51.176;6.738;2023-03-26T16:28:24;3.10;;;1.30;;
48550;SDS011;34397;51.176;6.738;2023-03-26T16:40:25;4.45;;;1.40;;
48550;SDS011;34397;51.176;6.738;2023-03-26T16:43:05;2.60;;;1.30;;
48550;SDS011;34397;51.176;6.738;2023-03-26T16:46:09;4.50;;;1.48;;
48550;SDS011;34397;51.176;6.738;2023-03-26T16:49:06;2.17;;;1.10;;
48550;SDS011;34397;51.176;6.738;2023-03-26T16:51:59;3.00;;;1.88;;
48550;SDS011;34397;51.176;6.738;2023-03-26T16:54:42;3.70;;;1.58;;
48550;SDS011;34397;51.176;6.738;2023-03-26T16:57:23;3.42;;;1.77;;
48550;SDS011;34397;51.176;6.738;2023-03-26T17:00:17;5.85;;;2.10;;
48550;SDS011;34397;51.176;6.738;2023-03-26T17:03:05;3.65;;;1.80;;
48550;SDS011;34397;51.176;6.738;2023-03-26T17:06:04;10.18;;;3.25;;
48550;SDS011;34397;51.176;6.738;2023-03-26T17:08:56;9.15;;;2.88;;
48550;SDS011;34397;51.176;6.738;2023-03-26T17:11:42;11.38;;;3.65;;
48550;SDS011;34397;51.176;6.738;2023-03-26T17:14:31;12.15;;;3.40;;
48550;SDS011;34397;51.176;6.738;2023-03-26T17:17:21;10.23;;;2.92;;
48550;SDS011;34397;51.176;6.738;2023-03-26T17:20:08;7.88;;;3.15;;
48550;SDS011;34397;51.176;6.738;2023-03-26T17:22:55;10.88;;;3.65;;
48550;SDS011;34397;51.176;6.738;2023-03-26T17:25:41;14.00;;;3.17;;
48550;SDS011;34397;51.176;6.738;2023-03-26T17:28:32;9.90;;;2.47;;
48550;SDS011;34397;51.176;6.738;2023-03-26T17:31:23;10.70;;;2.55;;
48550;SDS011;34397;51.176;6.738;2023-03-26T17:37:33;9.35;;;2.92;;
48550;SDS011;34397;51.176;6.738;2023-03-26T17:43:33;13.50;;;2.80;;
48550;SDS011;34397;51.176;6.738;2023-03-26T17:46:20;12.15;;;2.75;;